logo
Rechercher aéroport 
image banner adimage banner adimage banner ad
image banner ad

2CL7 - Glendale Plaza Emergency

Situé à Glendale, United States

ICAO - 2CL7, IATA -

Données fournies par Airmate  

Information générale

Coordonnées: N34°9'20" W118°15'31"
Élévation : 904 feet MSL.
Variation magnétique : 14° East
Voir autres Aéroports à California

Données opérationnelles

Special qualification required
Heure actuelle UTC:
Heure actuelle locale:
Météo à : KBUR - Bob Hope ( 10 km )
METAR: KBUR 011753Z VRB05KT 10SM SCT024 22/14 A2989 RMK AO2 SLP111 T02170139 10217 20194 50004 $
TAF: KBUR 011140Z 0112/0212 VRB03KT P6SM OVC020 FM011730 VRB03KT P6SM FEW025 FM011900 18010KT P6SM SKC FM020300 12006KT P6SM SKC FM020700 VRB03KT P6SM OVC015 FM021100 VRB03KT P6SM OVC020
Voir NOTAMs / SUP AIP / TFR affectant cet aéroport [VIEW]
Fréquences de communication: [VIEW]

Pistes:

Coordonnées de l'aéroport

Adresse: Glendale United States

Vue satellite de 2CL7